Time;durP1;ratioP1;P1;durP2;ratioP2;P2;SDS_P1;SDS_P2;PMS_P1;PMS_P2;Temp;Humidity;BMP_temperature;BMP_pressure;BME280_temperature;BME280_humidity;BME280_pressure;Samples;Min_cycle;Max_cycle;Signal;HPM_P1;HPM_P2
2022/08/04 00:00:04;;;;;;;14.20;6.45;;;;;;;;;;5109168;28;20042;-74
2022/08/04 00:02:40;;;;;;;19.17;6.63;;;;;;;;;;5106494;28;20520;-73
2022/08/04 00:05:10;;;;;;;13.10;5.97;;;;;;;;;;5115062;28;20448;-73
2022/08/04 00:07:48;;;;;;;15.57;6.22;;;;;;;;;;5116066;28;20520;-73
2022/08/04 00:10:16;;;;;;;15.27;6.45;;;;;;;;;;5119807;28;20040;-74
2022/08/04 00:12:44;;;;;;;13.85;6.38;;;;;;;;;;5097859;28;20042;-74
2022/08/04 00:15:10;;;;;;;16.92;6.75;;;;;;;;;;5102437;28;20074;-73
2022/08/04 00:17:43;;;;;;;15.45;7.60;;;;;;;;;;5107027;28;20035;-74
2022/08/04 00:20:09;;;;;;;22.13;7.45;;;;;;;;;;5119491;28;20040;-74
2022/08/04 00:22:37;;;;;;;12.73;7.30;;;;;;;;;;5091463;28;20119;-73
2022/08/04 00:25:04;;;;;;;13.48;7.30;;;;;;;;;;5098837;28;20055;-73
2022/08/04 00:27:30;;;;;;;17.80;7.70;;;;;;;;;;5096265;28;20386;-74
2022/08/04 00:29:59;;;;;;;16.65;7.38;;;;;;;;;;5115577;28;20047;-73
2022/08/04 00:32:26;;;;;;;13.55;6.93;;;;;;;;;;5086424;28;20040;-73
2022/08/04 00:34:52;;;;;;;15.82;7.50;;;;;;;;;;5099790;28;20050;-73
2022/08/04 00:37:21;;;;;;;18.02;7.88;;;;;;;;;;5098875;28;20461;-73
2022/08/04 00:39:48;;;;;;;16.65;7.68;;;;;;;;;;5099641;28;20131;-73
2022/08/04 00:42:25;;;;;;;15.57;8.35;;;;;;;;;;5110590;28;20509;-73
2022/08/04 00:44:51;;;;;;;15.68;8.15;;;;;;;;;;5116899;28;20553;-74
2022/08/04 00:47:26;;;;;;;16.30;7.78;;;;;;;;;;5097020;28;20103;-74
2022/08/04 00:49:52;;;;;;;15.45;7.60;;;;;;;;;;5118362;28;20115;-74
2022/08/04 00:52:32;;;;;;;14.77;7.70;;;;;;;;;;5109968;28;20485;-74
2022/08/04 00:55:01;;;;;;;13.97;7.83;;;;;;;;;;5113227;28;20044;-74
2022/08/04 00:57:46;;;;;;;13.90;7.60;;;;;;;;;;5113263;28;20314;-73
2022/08/04 01:00:13;;;;;;;17.20;7.07;;;;;;;;;;5098112;28;20043;-73
2022/08/04 01:02:58;;;;;;;16.67;7.93;;;;;;;;;;5103054;28;20477;-74
2022/08/04 01:05:30;;;;;;;15.77;6.90;;;;;;;;;;5097089;28;20101;-74
2022/08/04 01:08:15;;;;;;;19.50;7.18;;;;;;;;;;5089965;28;20059;-73
2022/08/04 01:10:50;;;;;;;18.27;7.38;;;;;;;;;;5100392;28;20036;-73
2022/08/04 01:13:25;;;;;;;19.52;7.97;;;;;;;;;;5101811;28;20032;-73
2022/08/04 01:15:51;;;;;;;14.73;6.80;;;;;;;;;;5111624;28;20055;-73
2022/08/04 01:18:40;;;;;;;15.23;6.68;;;;;;;;;;5111133;28;20036;-74
2022/08/04 01:21:15;;;;;;;13.68;6.97;;;;;;;;;;5087703;28;20550;-74
2022/08/04 01:23:44;;;;;;;14.50;7.20;;;;;;;;;;5097883;28;20082;-73
2022/08/04 01:26:36;;;;;;;15.13;7.63;;;;;;;;;;5104239;28;20047;-74
2022/08/04 01:29:09;;;;;;;16.35;8.65;;;;;;;;;;5104959;28;20043;-73
2022/08/04 01:31:53;;;;;;;18.52;8.80;;;;;;;;;;5116499;28;20051;-73
2022/08/04 01:34:19;;;;;;;20.50;8.85;;;;;;;;;;5099917;28;20051;-73
2022/08/04 01:36:46;;;;;;;18.95;8.07;;;;;;;;;;5101324;28;20039;-73
2022/08/04 01:42:00;;;;;;;20.08;8.30;;;;;;;;;;5096640;28;20052;-73
2022/08/04 01:44:30;;;;;;;19.38;8.35;;;;;;;;;;5115455;28;20050;-73
2022/08/04 01:46:56;;;;;;;16.95;8.23;;;;;;;;;;5102496;28;20044;-73
2022/08/04 01:49:27;;;;;;;21.58;8.52;;;;;;;;;;5089237;28;20040;-74
2022/08/04 01:51:54;;;;;;;17.10;8.77;;;;;;;;;;5112442;28;20043;-73
2022/08/04 01:54:20;;;;;;;20.83;8.90;;;;;;;;;;5080295;28;20056;-73
2022/08/04 01:56:48;;;;;;;14.32;8.88;;;;;;;;;;5110114;28;20073;-74
2022/08/04 01:59:17;;;;;;;19.52;8.88;;;;;;;;;;5100698;28;20036;-73
2022/08/04 02:01:43;;;;;;;17.88;8.23;;;;;;;;;;5106234;28;20043;-74
2022/08/04 02:04:13;;;;;;;19.65;9.02;;;;;;;;;;5112906;28;20043;-74
2022/08/04 02:06:45;;;;;;;15.48;8.50;;;;;;;;;;5105864;28;20036;-74
2022/08/04 02:09:14;;;;;;;20.42;8.98;;;;;;;;;;5108201;28;20064;-73
2022/08/04 02:11:42;;;;;;;15.35;8.35;;;;;;;;;;5108792;28;20039;-73
2022/08/04 02:14:39;;;;;;;17.60;9.02;;;;;;;;;;5114652;28;20079;-73
2022/08/04 02:17:10;;;;;;;17.05;9.43;;;;;;;;;;5109801;28;20040;-73
2022/08/04 02:19:44;;;;;;;17.40;8.95;;;;;;;;;;5064812;28;20071;-73
2022/08/04 02:22:15;;;;;;;19.83;8.85;;;;;;;;;;5098943;28;20085;-74
2022/08/04 02:25:04;;;;;;;19.88;9.02;;;;;;;;;;5098082;28;20043;-74
2022/08/04 02:27:34;;;;;;;18.42;8.63;;;;;;;;;;5085118;28;20044;-74
2022/08/04 02:30:02;;;;;;;19.35;9.02;;;;;;;;;;5118592;28;20042;-73
2022/08/04 02:32:29;;;;;;;16.35;8.77;;;;;;;;;;5104272;28;20127;-74
2022/08/04 02:35:14;;;;;;;18.05;8.85;;;;;;;;;;5103489;28;20559;-73
2022/08/04 02:37:46;;;;;;;19.83;9.50;;;;;;;;;;5108832;28;20047;-72
2022/08/04 02:40:12;;;;;;;15.90;8.07;;;;;;;;;;5117348;28;20047;-74
2022/08/04 02:42:38;;;;;;;18.10;8.20;;;;;;;;;;5109489;28;20035;-74
2022/08/04 02:45:05;;;;;;;18.52;9.15;;;;;;;;;;5105309;28;20508;-74
2022/08/04 02:47:31;;;;;;;18.77;8.73;;;;;;;;;;5112251;28;20036;-73
2022/08/04 02:49:57;;;;;;;18.60;9.15;;;;;;;;;;5098288;28;20058;-74
2022/08/04 02:52:24;;;;;;;19.02;9.38;;;;;;;;;;5098083;28;20074;-74
2022/08/04 02:54:55;;;;;;;21.13;9.18;;;;;;;;;;5097503;28;20108;-73
2022/08/04 02:57:21;;;;;;;;;;;;;;;;;;5108072;28;20069;-74
2022/08/04 02:59:47;;;;;;;18.83;8.43;;;;;;;;;;5099338;28;19920;-73
2022/08/04 03:02:14;;;;;;;17.13;8.68;;;;;;;;;;5107134;28;20037;-73
2022/08/04 03:04:48;;;;;;;15.95;8.55;;;;;;;;;;5090385;28;20090;-74
2022/08/04 03:07:33;;;;;;;23.60;8.82;;;;;;;;;;5110682;28;20640;-74
2022/08/04 03:10:15;;;;;;;15.48;8.10;;;;;;;;;;5097586;28;20044;-73
2022/08/04 03:12:47;;;;;;;16.95;8.65;;;;;;;;;;5117450;28;20044;-73
2022/08/04 03:15:13;;;;;;;17.58;8.32;;;;;;;;;;5113783;28;20389;-73
2022/08/04 03:17:58;;;;;;;17.30;8.40;;;;;;;;;;5102238;28;20478;-73
2022/08/04 03:20:36;;;;;;;18.20;8.23;;;;;;;;;;5096392;28;20044;-74
2022/08/04 03:23:24;;;;;;;15.80;7.78;;;;;;;;;;5096880;28;20052;-74
2022/08/04 03:26:09;;;;;;;16.20;7.68;;;;;;;;;;5097357;28;20036;-74
2022/08/04 03:28:35;;;;;;;16.90;7.93;;;;;;;;;;5096820;28;20052;-74
2022/08/04 03:31:16;;;;;;;17.77;8.50;;;;;;;;;;5096643;28;20047;-74
2022/08/04 03:34:01;;;;;;;15.43;8.38;;;;;;;;;;5097659;28;20036;-73
2022/08/04 03:36:27;;;;;;;19.23;7.88;;;;;;;;;;5108466;28;20040;-74
2022/08/04 03:39:02;;;;;;;20.35;9.85;;;;;;;;;;5117100;28;20505;-73
2022/08/04 03:41:31;;;;;;;19.85;8.45;;;;;;;;;;5111027;28;20047;-74
2022/08/04 03:44:19;;;;;;;19.08;9.00;;;;;;;;;;5098349;28;20100;-74
2022/08/04 03:47:00;;;;;;;15.20;7.80;;;;;;;;;;5113514;28;20054;-74
2022/08/04 03:49:26;;;;;;;;;;;;;;;;;;5113799;28;20107;-74
2022/08/04 03:54:56;;;;;;;17.77;8.25;;;;;;;;;;5094787;28;20409;-73
2022/08/04 03:57:37;;;;;;;14.95;8.07;;;;;;;;;;5095888;28;20044;-74
2022/08/04 04:00:03;;;;;;;;;;;;;;;;;;5100643;28;20400;-73
2022/08/04 04:02:48;;;;;;;15.90;7.20;;;;;;;;;;5115662;28;19926;-74
2022/08/04 04:05:20;;;;;;;18.35;8.23;;;;;;;;;;5116619;28;20051;-74
2022/08/04 04:07:49;;;;;;;20.77;7.95;;;;;;;;;;5077970;28;20048;-74
2022/08/04 04:10:30;;;;;;;17.48;8.05;;;;;;;;;;5095461;28;20097;-73
2022/08/04 04:13:02;;;;;;;16.25;7.82;;;;;;;;;;5109042;28;20040;-72
2022/08/04 04:16:00;;;;;;;21.45;8.57;;;;;;;;;;5095453;28;20137;-72
2022/08/04 04:18:45;;;;;;;14.65;7.95;;;;;;;;;;5031427;28;20412;-74
2022/08/04 04:21:31;;;;;;;16.42;8.15;;;;;;;;;;5028273;28;20061;-74
2022/08/04 04:24:08;;;;;;;21.92;8.60;;;;;;;;;;5047178;28;20461;-73
2022/08/04 04:26:43;;;;;;;15.48;8.50;;;;;;;;;;5047812;28;20146;-74
2022/08/04 04:29:21;;;;;;;14.85;7.78;;;;;;;;;;5032343;28;20049;-73
2022/08/04 04:31:47;;;;;;;17.63;7.90;;;;;;;;;;5033517;28;20049;-73
2022/08/04 04:34:20;;;;;;;17.55;7.90;;;;;;;;;;5036868;28;20364;-74
2022/08/04 04:37:05;;;;;;;17.80;7.88;;;;;;;;;;5036895;28;20037;-74
2022/08/04 04:39:46;;;;;;;18.20;7.82;;;;;;;;;;5036150;28;20510;-73
2022/08/04 04:42:20;;;;;;;15.82;7.43;;;;;;;;;;5032391;28;20046;-73
2022/08/04 04:44:58;;;;;;;16.42;8.63;;;;;;;;;;5021050;28;20128;-73
2022/08/04 04:47:33;;;;;;;14.55;7.93;;;;;;;;;;5036375;28;20447;-74
2022/08/04 04:50:03;;;;;;;20.85;8.90;;;;;;;;;;5037116;28;20045;-73
2022/08/04 04:52:49;;;;;;;20.85;8.88;;;;;;;;;;5035978;28;20446;-74
2022/08/04 04:55:15;;;;;;;18.65;8.10;;;;;;;;;;5109907;28;20047;-73
2022/08/04 04:57:42;;;;;;;15.82;7.95;;;;;;;;;;5100762;28;20048;-74
2022/08/04 05:00:11;;;;;;;14.15;7.30;;;;;;;;;;5099126;28;20047;-73
2022/08/04 05:02:55;;;;;;;18.80;7.40;;;;;;;;;;5099447;28;20055;-73
2022/08/04 05:05:37;;;;;;;14.60;7.25;;;;;;;;;;5102629;28;20051;-74
2022/08/04 05:08:03;;;;;;;18.63;7.45;;;;;;;;;;5089119;28;20497;-74
2022/08/04 05:10:44;;;;;;;15.30;7.93;;;;;;;;;;5099749;28;20097;-74
2022/08/04 05:13:29;;;;;;;15.85;7.43;;;;;;;;;;5118676;28;20047;-73
2022/08/04 05:15:59;;;;;;;15.13;7.43;;;;;;;;;;5118602;28;20497;-73
2022/08/04 05:18:27;;;;;;;16.10;6.75;;;;;;;;;;5097381;28;20048;-74
2022/08/04 05:20:56;;;;;;;16.30;7.50;;;;;;;;;;5103120;28;20047;-73
2022/08/04 05:23:29;;;;;;;13.73;7.57;;;;;;;;;;5101153;28;20032;-74
2022/08/04 05:26:07;;;;;;;18.92;7.50;;;;;;;;;;5100497;28;20516;-75
2022/08/04 05:28:39;;;;;;;21.30;7.80;;;;;;;;;;5098102;28;20043;-73
2022/08/04 05:31:08;;;;;;;18.08;7.38;;;;;;;;;;5093511;28;20040;-74
2022/08/04 05:33:39;;;;;;;22.73;7.25;;;;;;;;;;5090691;28;20032;-74
2022/08/04 05:36:07;;;;;;;16.73;7.72;;;;;;;;;;5115339;28;20085;-74
2022/08/04 05:38:37;;;;;;;15.75;7.25;;;;;;;;;;5103709;28;20442;-73
2022/08/04 05:41:04;;;;;;;21.13;7.22;;;;;;;;;;5109432;28;20048;-74
2022/08/04 05:43:30;;;;;;;19.65;7.22;;;;;;;;;;5110322;28;20044;-74
2022/08/04 05:45:57;;;;;;;15.50;7.47;;;;;;;;;;5108404;28;20123;-74
2022/08/04 05:48:23;;;;;;;18.52;6.72;;;;;;;;;;5107992;28;20044;-74
2022/08/04 05:50:50;;;;;;;19.27;7.20;;;;;;;;;;5119012;28;20060;-73
2022/08/04 05:53:17;;;;;;;15.80;6.30;;;;;;;;;;5086896;28;20046;-74
2022/08/04 05:55:43;;;;;;;17.58;6.50;;;;;;;;;;5108534;28;20048;-74
2022/08/04 05:58:10;;;;;;;17.25;6.43;;;;;;;;;;5079900;28;20048;-74
2022/08/04 06:00:37;;;;;;;14.93;6.00;;;;;;;;;;5103691;28;20039;-73
2022/08/04 06:03:04;;;;;;;16.27;6.22;;;;;;;;;;5110913;28;20051;-74
2022/08/04 06:05:30;;;;;;;14.05;5.82;;;;;;;;;;5112235;28;20051;-74
2022/08/04 06:07:56;;;;;;;15.82;5.93;;;;;;;;;;5104389;28;20044;-75
2022/08/04 06:10:23;;;;;;;15.35;6.32;;;;;;;;;;5106822;28;20044;-74
2022/08/04 06:12:52;;;;;;;14.90;6.13;;;;;;;;;;5098480;28;20408;-73
2022/08/04 06:15:19;;;;;;;13.90;6.57;;;;;;;;;;5098125;28;20404;-74
2022/08/04 06:17:48;;;;;;;21.52;6.85;;;;;;;;;;5096854;28;20079;-74
2022/08/04 06:20:15;;;;;;;17.05;6.75;;;;;;;;;;5099345;28;20050;-72
2022/08/04 06:22:42;;;;;;;15.65;7.20;;;;;;;;;;5097792;28;20097;-74
2022/08/04 06:25:10;;;;;;;16.75;6.75;;;;;;;;;;5101444;28;20052;-73
2022/08/04 06:27:36;;;;;;;17.10;7.10;;;;;;;;;;5108167;28;20132;-74
2022/08/04 06:30:05;;;;;;;14.57;6.90;;;;;;;;;;5097335;28;20056;-73
2022/08/04 06:32:46;;;;;;;15.95;6.50;;;;;;;;;;5098193;28;20044;-74
2022/08/04 06:35:14;;;;;;;15.63;5.80;;;;;;;;;;5103886;28;20047;-74
2022/08/04 06:37:40;;;;;;;17.20;5.43;;;;;;;;;;5117189;28;20058;-74
2022/08/04 06:40:07;;;;;;;13.05;4.93;;;;;;;;;;5116630;28;20048;-74
2022/08/04 06:42:33;;;;;;;12.52;5.40;;;;;;;;;;5117776;28;20039;-74
2022/08/04 06:45:00;;;;;;;14.35;5.70;;;;;;;;;;5104636;28;20050;-72
2022/08/04 06:47:28;;;;;;;15.18;6.22;;;;;;;;;;5096860;28;20126;-74
2022/08/04 06:49:55;;;;;;;14.63;5.78;;;;;;;;;;5096588;28;20055;-74
2022/08/04 06:52:21;;;;;;;13.55;5.40;;;;;;;;;;5079584;28;20044;-74
2022/08/04 06:54:49;;;;;;;11.90;4.88;;;;;;;;;;5104388;28;20143;-74
2022/08/04 06:57:16;;;;;;;14.75;5.50;;;;;;;;;;5097196;28;20051;-75
2022/08/04 06:59:44;;;;;;;12.90;5.60;;;;;;;;;;5095712;28;20058;-73
2022/08/04 07:02:19;;;;;;;14.27;5.10;;;;;;;;;;5099941;28;20044;-74
2022/08/04 07:04:45;;;;;;;14.30;5.45;;;;;;;;;;5117630;28;20051;-74
2022/08/04 07:07:12;;;;;;;18.75;6.05;;;;;;;;;;5108531;28;20500;-74
2022/08/04 07:09:38;;;;;;;15.48;5.28;;;;;;;;;;5083687;28;20401;-74
2022/08/04 07:12:05;;;;;;;16.58;5.63;;;;;;;;;;5095907;28;20048;-75
2022/08/04 07:14:35;;;;;;;13.23;5.20;;;;;;;;;;5097587;28;20050;-74
2022/08/04 07:17:02;;;;;;;15.48;5.80;;;;;;;;;;5096962;28;20036;-75
2022/08/04 07:19:28;;;;;;;17.92;5.22;;;;;;;;;;5103954;28;20107;-75
2022/08/04 07:21:54;;;;;;;12.65;4.82;;;;;;;;;;5096392;28;20047;-75
2022/08/04 07:24:28;;;;;;;12.98;5.03;;;;;;;;;;5107624;28;20055;-74
2022/08/04 07:26:55;;;;;;;11.57;4.80;;;;;;;;;;5095498;28;20047;-74
2022/08/04 07:29:21;;;;;;;15.32;5.47;;;;;;;;;;5106691;28;20039;-74
2022/08/04 07:31:48;;;;;;;13.43;4.65;;;;;;;;;;5113779;28;20055;-75
2022/08/04 07:34:14;;;;;;;14.00;5.05;;;;;;;;;;5116930;28;20104;-75
2022/08/04 07:36:41;;;;;;;11.95;4.22;;;;;;;;;;5116542;28;20066;-74
2022/08/04 07:39:07;;;;;;;16.17;5.28;;;;;;;;;;5114786;28;20493;-75
2022/08/04 07:41:33;;;;;;;11.77;4.82;;;;;;;;;;5109439;28;20054;-75
2022/08/04 07:43:59;;;;;;;12.80;5.07;;;;;;;;;;5116147;28;20070;-75
2022/08/04 07:46:25;;;;;;;14.70;4.82;;;;;;;;;;5104257;28;20048;-74
2022/08/04 07:48:52;;;;;;;15.20;5.32;;;;;;;;;;5078241;28;20048;-74
2022/08/04 07:51:18;;;;;;;16.50;5.80;;;;;;;;;;5109244;28;20055;-75
2022/08/04 07:53:44;;;;;;;14.95;5.05;;;;;;;;;;5099210;28;20052;-73
2022/08/04 07:56:11;;;;;;;13.50;5.35;;;;;;;;;;5105179;28;20050;-74
2022/08/04 07:58:37;;;;;;;15.35;4.55;;;;;;;;;;5115698;28;20058;-74
2022/08/04 08:01:03;;;;;;;12.55;4.55;;;;;;;;;;5116183;28;20044;-74
2022/08/04 08:03:29;;;;;;;11.50;4.28;;;;;;;;;;5102593;28;20039;-74
2022/08/04 08:05:55;;;;;;;14.65;4.60;;;;;;;;;;5104160;28;20052;-74
2022/08/04 08:08:22;;;;;;;11.90;4.40;;;;;;;;;;5100887;28;20072;-74
2022/08/04 08:10:48;;;;;;;14.27;4.55;;;;;;;;;;5099474;28;20060;-75
2022/08/04 08:13:15;;;;;;;14.38;4.47;;;;;;;;;;5099653;28;20044;-74
2022/08/04 08:15:43;;;;;;;11.20;4.47;;;;;;;;;;5098833;28;20055;-73
2022/08/04 08:18:09;;;;;;;14.20;4.57;;;;;;;;;;5112124;28;20040;-74
2022/08/04 08:20:35;;;;;;;14.20;4.50;;;;;;;;;;5118278;28;20043;-75
2022/08/04 08:23:02;;;;;;;12.98;4.03;;;;;;;;;;5111197;28;20044;-76
2022/08/04 08:25:30;;;;;;;11.02;3.92;;;;;;;;;;5099520;28;20048;-75
2022/08/04 08:27:56;;;;;;;14.35;4.53;;;;;;;;;;5106222;28;20123;-74
2022/08/04 08:30:22;;;;;;;14.02;4.45;;;;;;;;;;5100989;28;20125;-72
2022/08/04 08:32:49;;;;;;;10.38;3.97;;;;;;;;;;5111426;28;20192;-75
2022/08/04 08:35:15;;;;;;;13.13;4.13;;;;;;;;;;5095918;28;20173;-74
2022/08/04 08:37:47;;;;;;;11.80;3.70;;;;;;;;;;5096466;28;20056;-74
2022/08/04 08:40:32;;;;;;;13.57;4.43;;;;;;;;;;5096097;28;20553;-71
2022/08/04 08:43:16;;;;;;;10.90;3.53;;;;;;;;;;5098382;28;20083;-74
2022/08/04 08:45:58;;;;;;;11.25;3.38;;;;;;;;;;5098573;28;20043;-73
2022/08/04 08:48:42;;;;;;;14.68;3.42;;;;;;;;;;5119901;28;20131;-73
2022/08/04 08:51:08;;;;;;;12.00;3.17;;;;;;;;;;5120547;28;20043;-74
2022/08/04 08:53:43;;;;;;;9.18;3.15;;;;;;;;;;5116726;28;20052;-74
2022/08/04 08:56:28;;;;;;;11.85;3.03;;;;;;;;;;5100032;28;20447;-73
2022/08/04 08:59:15;;;;;;;11.18;2.90;;;;;;;;;;5098023;28;20413;-74
2022/08/04 09:01:50;;;;;;;11.02;3.25;;;;;;;;;;5100229;28;20047;-73
2022/08/04 09:04:35;;;;;;;9.43;3.05;;;;;;;;;;5097132;28;20048;-73
2022/08/04 09:07:10;;;;;;;10.73;2.70;;;;;;;;;;5097031;28;20512;-74
2022/08/04 09:09:45;;;;;;;10.20;3.33;;;;;;;;;;5100582;28;20059;-73
2022/08/04 09:12:33;;;;;;;12.50;2.83;;;;;;;;;;5062169;28;20047;-73
2022/08/04 09:15:12;;;;;;;8.60;2.92;;;;;;;;;;5096426;28;20405;-73
2022/08/04 09:17:56;;;;;;;12.98;3.00;;;;;;;;;;5102396;28;20084;-72
2022/08/04 09:20:32;;;;;;;10.70;2.80;;;;;;;;;;5098303;28;20442;-71
2022/08/04 09:23:06;;;;;;;20.70;3.33;;;;;;;;;;5111411;28;20497;-71
2022/08/04 09:25:42;;;;;;;12.85;2.85;;;;;;;;;;5097466;28;20439;-72
2022/08/04 09:28:15;;;;;;;11.63;3.00;;;;;;;;;;5093174;28;20036;-72
2022/08/04 09:30:41;;;;;;;12.80;3.72;;;;;;;;;;5100573;28;20509;-72
2022/08/04 09:33:15;;;;;;;11.93;3.38;;;;;;;;;;5076420;28;20067;-72
2022/08/04 09:35:47;;;;;;;9.45;2.72;;;;;;;;;;5100546;28;20047;-73
2022/08/04 09:38:17;;;;;;;14.57;3.35;;;;;;;;;;5097912;28;20100;-73
2022/08/04 09:40:43;;;;;;;;;;;;;;;;;;5083988;28;20052;-72
2022/08/04 09:43:15;;;;;;;17.05;4.10;;;;;;;;;;5105331;28;19929;-72
2022/08/04 09:45:53;;;;;;;12.70;2.90;;;;;;;;;;5093815;28;20048;-71
2022/08/04 09:48:38;;;;;;;11.65;3.20;;;;;;;;;;5083307;28;20117;-72
2022/08/04 09:51:11;;;;;;;9.38;2.50;;;;;;;;;;5102063;28;20120;-71
2022/08/04 09:53:45;;;;;;;11.90;2.63;;;;;;;;;;5093978;28;20052;-71
2022/08/04 09:56:20;;;;;;;9.02;3.00;;;;;;;;;;5096425;28;20447;-70
2022/08/04 09:58:46;;;;;;;11.23;3.03;;;;;;;;;;5114787;28;20047;-72
2022/08/04 10:01:17;;;;;;;10.95;3.00;;;;;;;;;;5096974;28;20040;-72
2022/08/04 10:03:45;;;;;;;9.57;2.67;;;;;;;;;;5100833;28;20120;-72
2022/08/04 10:06:11;;;;;;;11.82;2.97;;;;;;;;;;5095804;28;20044;-72
2022/08/04 10:08:49;;;;;;;11.65;2.85;;;;;;;;;;5095485;28;20046;-73
2022/08/04 10:11:35;;;;;;;8.50;2.70;;;;;;;;;;5096782;28;20378;-74
2022/08/04 10:14:05;;;;;;;11.38;3.38;;;;;;;;;;5027294;28;20485;-73
2022/08/04 10:16:54;;;;;;;10.63;2.65;;;;;;;;;;5076913;28;20448;-73
2022/08/04 10:19:27;;;;;;;9.40;2.50;;;;;;;;;;5095929;28;20044;-73
2022/08/04 10:21:56;;;;;;;9.55;2.83;;;;;;;;;;5096720;28;20507;-73
2022/08/04 10:24:25;;;;;;;12.68;2.65;;;;;;;;;;5096509;28;20432;-72
2022/08/04 10:26:53;;;;;;;11.50;2.95;;;;;;;;;;5060410;28;20044;-71
2022/08/04 10:29:27;;;;;;;9.52;2.60;;;;;;;;;;5103358;28;20063;-73
2022/08/04 10:31:56;;;;;;;8.35;2.78;;;;;;;;;;5114176;28;20127;-72
2022/08/04 10:34:25;;;;;;;8.13;2.47;;;;;;;;;;5096542;28;20059;-73
2022/08/04 10:37:01;;;;;;;10.77;3.35;;;;;;;;;;5095477;28;20050;-73
2022/08/04 10:40:35;;;;;;;10.43;3.15;;;;;;;;;;5095023;28;20094;-72
2022/08/04 10:42:35;;;;;;;9.88;3.00;;;;;;;;;;5077312;28;20059;-72
2022/08/04 10:45:10;;;;;;;9.05;3.00;;;;;;;;;;5107108;28;20501;-72
2022/08/04 10:47:43;;;;;;;13.30;3.22;;;;;;;;;;5096512;28;20484;-72
2022/08/04 10:50:11;;;;;;;10.55;3.15;;;;;;;;;;5105766;28;20055;-72
2022/08/04 10:52:45;;;;;;;12.65;3.20;;;;;;;;;;5106370;28;20039;-73
2022/08/04 10:55:22;;;;;;;8.82;2.88;;;;;;;;;;5114665;28;20062;-73
2022/08/04 10:57:51;;;;;;;8.52;2.80;;;;;;;;;;5115197;28;20082;-73
2022/08/04 11:00:27;;;;;;;11.18;3.20;;;;;;;;;;5077227;28;20051;-73
2022/08/04 11:03:07;;;;;;;10.18;3.10;;;;;;;;;;5112398;28;20085;-72
2022/08/04 11:05:34;;;;;;;12.88;2.80;;;;;;;;;;5115162;28;20132;-73
2022/08/04 11:08:02;;;;;;;10.07;3.28;;;;;;;;;;5122249;27;20099;-79
2022/08/04 11:10:31;;;;;;;10.75;3.60;;;;;;;;;;5104716;28;20481;-74
2022/08/04 11:13:00;;;;;;;11.75;3.28;;;;;;;;;;5102267;28;20044;-75
2022/08/04 11:15:33;;;;;;;12.95;3.55;;;;;;;;;;5095460;28;20131;-74
2022/08/04 11:18:04;;;;;;;10.25;3.15;;;;;;;;;;5115692;28;20046;-75
2022/08/04 11:20:40;;;;;;;11.13;4.03;;;;;;;;;;5097519;28;20543;-75
2022/08/04 11:23:28;;;;;;;11.88;3.40;;;;;;;;;;5101546;28;20031;-75
2022/08/04 11:26:05;;;;;;;9.18;3.60;;;;;;;;;;5113638;28;20044;-74
2022/08/04 11:28:42;;;;;;;8.48;3.03;;;;;;;;;;5105188;28;20120;-75
2022/08/04 11:31:13;;;;;;;10.93;3.38;;;;;;;;;;5110548;28;20105;-75
2022/08/04 11:33:49;;;;;;;9.02;2.92;;;;;;;;;;5116435;28;20051;-75
2022/08/04 11:36:18;;;;;;;8.57;3.03;;;;;;;;;;5078318;28;20031;-74
2022/08/04 11:38:49;;;;;;;9.38;3.17;;;;;;;;;;5103450;28;20059;-75
2022/08/04 11:41:21;;;;;;;8.75;3.05;;;;;;;;;;5121461;28;20044;-75
2022/08/04 11:43:57;;;;;;;9.88;3.17;;;;;;;;;;5120903;28;20106;-75
2022/08/04 11:46:43;;;;;;;11.73;3.10;;;;;;;;;;5117792;28;20043;-75
2022/08/04 11:49:28;;;;;;;9.60;3.42;;;;;;;;;;5102648;28;20040;-75
2022/08/04 11:51:56;;;;;;;12.13;3.03;;;;;;;;;;5093431;28;20039;-74
2022/08/04 11:54:26;;;;;;;10.65;2.67;;;;;;;;;;5118842;28;20044;-74
2022/08/04 11:56:52;;;;;;;10.68;2.90;;;;;;;;;;5106128;28;20051;-74
2022/08/04 11:59:21;;;;;;;8.82;2.70;;;;;;;;;;5091107;28;20039;-74
2022/08/04 12:02:02;;;;;;;8.50;2.53;;;;;;;;;;5118757;28;20047;-75
2022/08/04 12:04:36;;;;;;;9.60;3.20;;;;;;;;;;5107399;28;20078;-75
2022/08/04 12:07:11;;;;;;;9.15;2.47;;;;;;;;;;5113444;28;20036;-74
2022/08/04 12:09:52;;;;;;;9.57;2.45;;;;;;;;;;5101721;28;20081;-74
2022/08/04 12:12:36;;;;;;;8.88;2.33;;;;;;;;;;5100604;28;20165;-74
2022/08/04 12:15:12;;;;;;;12.65;2.35;;;;;;;;;;5103243;28;20501;-75
2022/08/04 12:17:59;;;;;;;10.90;2.45;;;;;;;;;;5083287;28;20047;-75
2022/08/04 12:20:27;;;;;;;10.82;2.15;;;;;;;;;;5085102;28;20056;-74
2022/08/04 12:22:56;;;;;;;10.07;2.10;;;;;;;;;;5099330;28;20044;-75
2022/08/04 12:25:30;;;;;;;8.80;2.03;;;;;;;;;;5100065;28;20040;-75
2022/08/04 12:28:05;;;;;;;8.95;2.20;;;;;;;;;;5119635;28;20744;-75
2022/08/04 12:30:35;;;;;;;8.50;2.00;;;;;;;;;;5110678;28;20052;-73
2022/08/04 12:33:14;;;;;;;12.25;2.33;;;;;;;;;;5099628;28;20524;-73
2022/08/04 12:35:46;;;;;;;9.98;2.03;;;;;;;;;;5103161;28;20129;-74
2022/08/04 12:38:13;;;;;;;10.20;2.20;;;;;;;;;;5099745;28;20055;-74
2022/08/04 12:40:54;;;;;;;8.82;2.40;;;;;;;;;;5109907;28;20458;-75
2022/08/04 12:43:26;;;;;;;9.13;2.17;;;;;;;;;;5118948;28;20040;-74
2022/08/04 12:45:54;;;;;;;9.90;2.10;;;;;;;;;;5119623;28;20054;-75
2022/08/04 12:48:25;;;;;;;10.45;2.20;;;;;;;;;;5113417;28;20132;-74
2022/08/04 12:50:51;;;;;;;;;;;;;;;;;;5110049;28;20048;-74
2022/08/04 12:53:18;;;;;;;7.15;2.05;;;;;;;;;;5098320;28;19957;-74
2022/08/04 12:55:47;;;;;;;8.48;2.35;;;;;;;;;;5079846;28;20104;-74
2022/08/04 12:58:28;;;;;;;8.63;2.05;;;;;;;;;;5112245;28;20047;-74
2022/08/04 13:01:02;;;;;;;10.18;2.40;;;;;;;;;;5097619;28;20426;-74
2022/08/04 13:03:36;;;;;;;12.38;2.63;;;;;;;;;;5078594;28;20043;-74
2022/08/04 13:06:02;;;;;;;13.35;2.67;;;;;;;;;;5095715;28;20059;-73
2022/08/04 13:08:28;;;;;;;11.00;3.15;;;;;;;;;;5099457;28;20046;-73
2022/08/04 13:10:57;;;;;;;8.23;2.65;;;;;;;;;;5108780;28;20460;-73
2022/08/04 13:13:27;;;;;;;10.73;2.80;;;;;;;;;;5107652;28;20093;-74
2022/08/04 13:16:07;;;;;;;9.88;3.00;;;;;;;;;;5104380;28;20052;-74
2022/08/04 13:18:35;;;;;;;9.87;2.87;;;;;;;;;;5095105;28;20043;-74
2022/08/04 13:21:21;;;;;;;9.75;2.50;;;;;;;;;;5095601;28;20075;-73
2022/08/04 13:23:48;;;;;;;12.02;2.53;;;;;;;;;;5094308;28;20048;-73
2022/08/04 13:26:15;;;;;;;7.00;2.78;;;;;;;;;;5095114;28;20044;-74
2022/08/04 13:28:42;;;;;;;8.00;2.40;;;;;;;;;;5094958;28;20056;-74
2022/08/04 13:31:11;;;;;;;11.07;2.60;;;;;;;;;;5097055;28;20123;-74
2022/08/04 13:33:41;;;;;;;7.32;2.47;;;;;;;;;;5094618;28;20486;-73
2022/08/04 13:36:07;;;;;;;8.10;2.33;;;;;;;;;;5094811;28;20047;-72
2022/08/04 13:38:34;;;;;;;9.80;2.17;;;;;;;;;;5097441;28;20038;-73
2022/08/04 13:41:01;;;;;;;5.72;1.80;;;;;;;;;;5107073;28;20126;-75
2022/08/04 13:43:29;;;;;;;6.50;2.03;;;;;;;;;;5104007;28;20044;-73
2022/08/04 13:46:00;;;;;;;4.85;1.90;;;;;;;;;;5107510;28;21121;-74
2022/08/04 13:48:30;;;;;;;8.07;1.80;;;;;;;;;;5104814;28;20047;-73
2022/08/04 13:51:03;;;;;;;5.22;1.55;;;;;;;;;;5115241;28;20052;-73
2022/08/04 13:53:30;;;;;;;7.93;1.88;;;;;;;;;;5115349;28;20047;-73
2022/08/04 13:55:57;;;;;;;5.70;1.58;;;;;;;;;;5106384;28;20064;-73
2022/08/04 13:58:23;;;;;;;6.30;1.73;;;;;;;;;;5094837;28;20043;-74
2022/08/04 14:00:58;;;;;;;6.05;1.52;;;;;;;;;;5094429;28;20040;-74
2022/08/04 14:03:30;;;;;;;7.05;1.60;;;;;;;;;;5088405;28;20485;-75
2022/08/04 14:06:05;;;;;;;6.00;1.52;;;;;;;;;;5114080;28;20543;-73
2022/08/04 14:08:32;;;;;;;5.68;1.10;;;;;;;;;;5112782;28;20047;-74
2022/08/04 14:10:58;;;;;;;4.20;1.50;;;;;;;;;;5114968;28;20040;-73
2022/08/04 14:13:31;;;;;;;5.93;1.38;;;;;;;;;;5104297;28;20043;-73
2022/08/04 14:15:58;;;;;;;7.55;1.60;;;;;;;;;;5094939;28;20051;-73
2022/08/04 14:18:25;;;;;;;4.65;1.30;;;;;;;;;;5075853;28;20044;-73
2022/08/04 14:21:08;;;;;;;4.80;1.33;;;;;;;;;;5101089;28;20429;-74
2022/08/04 14:23:39;;;;;;;6.10;1.75;;;;;;;;;;5114554;28;20401;-73
2022/08/04 14:26:13;;;;;;;4.20;1.38;;;;;;;;;;5096424;28;20138;-74
2022/08/04 14:28:39;;;;;;;4.55;1.27;;;;;;;;;;5112007;28;20101;-74
2022/08/04 14:31:10;;;;;;;6.18;1.52;;;;;;;;;;5084253;28;20039;-74
2022/08/04 14:33:37;;;;;;;4.88;1.55;;;;;;;;;;5113329;28;20386;-73
2022/08/04 14:36:03;;;;;;;5.53;1.48;;;;;;;;;;5114675;28;20043;-74
2022/08/04 14:38:49;;;;;;;5.60;1.52;;;;;;;;;;5113134;28;20066;-73
2022/08/04 14:41:16;;;;;;;5.18;1.35;;;;;;;;;;5103904;28;20044;-74
2022/08/04 14:43:43;;;;;;;6.50;1.40;;;;;;;;;;5094928;28;20489;-74
2022/08/04 14:46:11;;;;;;;7.57;1.40;;;;;;;;;;5095238;28;20059;-74
2022/08/04 14:48:38;;;;;;;5.18;1.15;;;;;;;;;;5075397;28;20535;-72
2022/08/04 14:51:04;;;;;;;5.85;1.20;;;;;;;;;;5093752;28;20093;-73
2022/08/04 14:53:31;;;;;;;3.08;1.10;;;;;;;;;;5075585;28;20056;-73
2022/08/04 14:55:58;;;;;;;4.95;1.38;;;;;;;;;;5095190;28;20067;-74
2022/08/04 14:58:28;;;;;;;5.28;1.35;;;;;;;;;;5108768;28;20044;-73
2022/08/04 15:00:54;;;;;;;;;;;;;;;;;;5098594;28;20405;-73
2022/08/04 15:03:21;;;;;;;4.63;1.40;;;;;;;;;;5094785;28;19920;-75
2022/08/04 15:05:47;;;;;;;3.05;1.00;;;;;;;;;;5093480;28;20118;-74
2022/08/04 15:08:14;;;;;;;5.90;1.20;;;;;;;;;;5075527;28;20047;-75